Time;durP1;ratioP1;P1;durP2;ratioP2;P2;SDS_P1;SDS_P2;PMS_P1;PMS_P2;Temp;Humidity;BMP_temperature;BMP_pressure;BME280_temperature;BME280_humidity;BME280_pressure;Samples;Min_cycle;Max_cycle;Signal;HPM_P1;HPM_P2
2023/08/11 00:00:08;;;;;;;8.60;3.53;;;;;;;16.54;100.00;100881.59;5041762;28;20061;-73
2023/08/11 00:02:43;;;;;;;6.28;3.47;;;;;;;16.63;100.00;100891.75;5045493;28;20049;-72
2023/08/11 00:05:11;;;;;;;7.85;3.85;;;;;;;16.63;100.00;100891.75;5061217;28;20128;-72
2023/08/11 00:07:41;;;;;;;7.15;4.05;;;;;;;16.56;100.00;100897.56;5036743;28;20044;-73
2023/08/11 00:10:09;;;;;;;6.90;3.70;;;;;;;16.46;100.00;100902.63;5064032;28;20052;-72
2023/08/11 00:12:37;;;;;;;6.72;4.25;;;;;;;16.44;100.00;100901.88;5051747;28;20041;-73
2023/08/11 00:15:08;;;;;;;6.03;3.63;;;;;;;16.42;100.00;100899.28;5055148;28;20077;-74
2023/08/11 00:17:37;;;;;;;5.90;3.33;;;;;;;16.38;100.00;100894.22;5039944;28;20068;-71
2023/08/11 00:20:08;;;;;;;12.38;3.90;;;;;;;16.37;100.00;100900.56;5039794;28;20524;-73
2023/08/11 00:22:37;;;;;;;12.45;4.15;;;;;;;16.23;100.00;100890.69;5028683;28;20399;-73
2023/08/11 00:25:08;;;;;;;12.30;4.20;;;;;;;16.18;100.00;100894.63;5036571;28;20092;-71
2023/08/11 00:27:39;;;;;;;8.32;3.83;;;;;;;16.10;100.00;100887.94;5022364;28;20053;-72
2023/08/11 00:30:09;;;;;;;6.95;3.38;;;;;;;16.14;100.00;100894.81;5042321;28;20099;-73
2023/08/11 00:32:37;;;;;;;8.13;3.80;;;;;;;16.10;100.00;100887.09;5051077;28;20055;-74
2023/08/11 00:35:05;;;;;;;7.10;3.83;;;;;;;16.12;100.00;100895.88;5033117;28;20580;-73
2023/08/11 00:37:35;;;;;;;8.75;4.30;;;;;;;16.08;100.00;100899.66;5031045;28;20049;-74
2023/08/11 00:40:06;;;;;;;8.57;4.10;;;;;;;16.04;100.00;100903.50;5039783;28;20050;-74
2023/08/11 00:42:38;;;;;;;5.90;3.92;;;;;;;15.97;100.00;100904.81;5033921;28;20507;-73
2023/08/11 00:45:08;;;;;;;7.20;3.50;;;;;;;16.00;100.00;100907.31;5037854;28;20537;-73
2023/08/11 00:47:41;;;;;;;6.78;3.38;;;;;;;15.95;100.00;100904.91;5039422;28;20104;-73
2023/08/11 00:50:11;;;;;;;9.10;3.67;;;;;;;15.97;100.00;100902.16;5035694;28;20420;-72
2023/08/11 00:52:40;;;;;;;6.70;3.97;;;;;;;15.86;100.00;100889.47;5029307;28;20057;-73
2023/08/11 00:55:09;;;;;;;7.60;3.78;;;;;;;15.92;100.00;100906.91;5046261;28;20053;-73
2023/08/11 00:57:39;;;;;;;8.10;3.72;;;;;;;15.87;100.00;100906.34;5040112;28;20052;-72
2023/08/11 01:00:12;;;;;;;5.67;3.50;;;;;;;15.83;100.00;100904.81;5045737;28;20050;-72
2023/08/11 01:02:42;;;;;;;4.90;3.53;;;;;;;15.81;100.00;100901.38;5039249;28;20053;-73
2023/08/11 01:05:14;;;;;;;7.18;3.40;;;;;;;15.84;100.00;100903.88;5040541;28;20073;-71
2023/08/11 01:07:48;;;;;;;8.07;3.80;;;;;;;15.85;100.00;100905.59;5046469;28;20057;-71
2023/08/11 01:10:22;;;;;;;8.80;3.88;;;;;;;15.76;100.00;100907.84;5058096;28;21625;-74
2023/08/11 01:13:06;;;;;;;7.03;3.88;;;;;;;15.69;100.00;100902.97;5026004;28;20117;-72
2023/08/11 01:15:38;;;;;;;7.90;4.10;;;;;;;15.58;100.00;100892.09;5038323;28;20075;-72
2023/08/11 01:18:07;;;;;;;7.18;3.80;;;;;;;15.58;100.00;100898.28;5027092;28;20041;-72
2023/08/11 01:20:36;;;;;;;7.10;4.15;;;;;;;15.54;100.00;100898.53;5042369;28;20812;-72
2023/08/11 01:23:07;;;;;;;5.85;3.50;;;;;;;15.52;100.00;100900.41;5017745;28;20045;-73
2023/08/11 01:25:38;;;;;;;5.95;3.20;;;;;;;15.44;100.00;100887.50;5036854;28;20054;-73
2023/08/11 01:28:06;;;;;;;;;;;;;;;15.49;100.00;100893.44;5024106;28;21098;-72
2023/08/11 01:30:36;;;;;;;8.45;3.72;;;;;;;15.38;100.00;100880.75;5037593;28;19921;-72
2023/08/11 01:33:05;;;;;;;5.97;3.55;;;;;;;15.44;100.00;100899.03;5038601;28;20064;-73
2023/08/11 01:35:33;;;;;;;12.40;3.95;;;;;;;15.48;100.00;100898.88;5041398;28;20048;-72
2023/08/11 01:38:10;;;;;;;7.13;3.63;;;;;;;15.45;100.00;100898.09;5046894;28;20088;-71
2023/08/11 01:40:40;;;;;;;7.03;4.07;;;;;;;15.41;100.00;100903.72;5043430;28;20096;-73
2023/08/11 01:43:12;;;;;;;8.00;4.30;;;;;;;15.34;100.00;100905.03;5035567;28;20045;-73
2023/08/11 01:45:40;;;;;;;10.18;3.85;;;;;;;15.23;100.00;100894.13;5040889;28;20520;-72
2023/08/11 01:48:10;;;;;;;10.77;3.83;;;;;;;15.12;100.00;100886.72;5040544;28;20132;-72
2023/08/11 01:50:38;;;;;;;6.00;4.03;;;;;;;15.08;100.00;100901.22;5044665;28;20045;-73
2023/08/11 01:53:06;;;;;;;8.82;3.75;;;;;;;14.96;100.00;100886.75;5040954;28;20501;-73
2023/08/11 01:55:36;;;;;;;5.93;3.60;;;;;;;15.00;100.00;100885.63;5043570;28;20049;-73
2023/08/11 01:58:06;;;;;;;8.10;4.05;;;;;;;15.02;100.00;100891.75;5025723;28;20045;-73
2023/08/11 02:00:36;;;;;;;6.10;4.28;;;;;;;14.96;100.00;100877.91;5025681;28;20056;-72
2023/08/11 02:03:07;;;;;;;5.25;4.00;;;;;;;15.07;100.00;100887.03;5038442;28;20041;-73
2023/08/11 02:05:35;;;;;;;8.38;3.88;;;;;;;15.06;100.00;100876.44;5042017;28;20115;-73
2023/08/11 02:08:04;;;;;;;8.75;4.63;;;;;;;15.09;100.00;100885.13;5027543;28;20577;-73
2023/08/11 02:10:32;;;;;;;7.40;4.22;;;;;;;15.11;100.00;100886.84;5037393;28;20147;-73
2023/08/11 02:13:00;;;;;;;11.10;4.80;;;;;;;15.04;100.00;100878.34;5044363;28;20509;-73
2023/08/11 02:15:31;;;;;;;8.60;4.65;;;;;;;15.08;100.00;100880.75;5044785;28;20515;-73
2023/08/11 02:17:59;;;;;;;6.07;4.70;;;;;;;15.08;100.00;100880.75;5040683;28;20097;-73
2023/08/11 02:20:27;;;;;;;7.35;4.38;;;;;;;15.11;100.00;100889.53;5023153;28;20048;-72
2023/08/11 02:22:55;;;;;;;7.82;4.38;;;;;;;15.15;100.00;100885.69;5027891;28;20073;-73
2023/08/11 02:25:25;;;;;;;7.65;4.20;;;;;;;15.12;100.00;100880.53;5039180;28;20494;-74
2023/08/11 02:27:54;;;;;;;7.47;3.88;;;;;;;15.11;100.00;100886.84;5041002;28;20052;-73
2023/08/11 02:30:22;;;;;;;4.78;3.67;;;;;;;14.96;100.00;100873.41;5041390;28;20053;-73
2023/08/11 02:32:52;;;;;;;9.48;4.28;;;;;;;14.91;100.00;100886.19;5035272;28;20045;-73
2023/08/11 02:35:21;;;;;;;10.65;4.28;;;;;;;14.83;100.00;100879.53;5037867;28;20476;-73
2023/08/11 02:37:49;;;;;;;7.60;3.65;;;;;;;14.77;100.00;100882.56;5037318;28;20222;-73
2023/08/11 02:40:19;;;;;;;7.90;4.03;;;;;;;14.72;100.00;100878.34;5037768;28;20042;-73
2023/08/11 02:42:56;;;;;;;8.77;3.78;;;;;;;14.67;100.00;100885.75;5032147;28;21621;-73
2023/08/11 02:45:27;;;;;;;9.82;3.95;;;;;;;14.63;100.00;100883.38;5039301;28;20071;-73
2023/08/11 02:47:57;;;;;;;6.45;3.85;;;;;;;14.57;100.00;100881.03;5036764;28;20087;-73
2023/08/11 02:50:25;;;;;;;5.95;4.05;;;;;;;14.46;100.00;100873.63;5042170;28;20140;-73
2023/08/11 02:52:53;;;;;;;7.90;3.95;;;;;;;14.31;100.00;100858.47;5020926;28;20122;-73
2023/08/11 02:55:21;;;;;;;7.55;4.38;;;;;;;14.46;100.00;100883.44;5034369;28;20053;-73
2023/08/11 02:57:49;;;;;;;5.55;4.28;;;;;;;14.45;100.00;100887.91;5017767;28;20122;-73
2023/08/11 03:00:18;;;;;;;5.68;3.83;;;;;;;14.49;100.00;100883.25;5033673;28;20694;-73
2023/08/11 03:02:46;;;;;;;8.35;3.88;;;;;;;14.58;100.00;100885.41;5052040;28;21097;-73
2023/08/11 03:05:17;;;;;;;6.00;3.72;;;;;;;14.57;100.00;100881.88;5036713;28;20051;-73
2023/08/11 03:07:50;;;;;;;8.15;4.00;;;;;;;14.61;100.00;100883.44;5040594;28;20041;-73
2023/08/11 03:10:18;;;;;;;8.98;4.75;;;;;;;14.61;100.00;100888.78;5045590;28;20055;-72
2023/08/11 03:12:47;;;;;;;9.27;4.45;;;;;;;14.54;100.00;100884.72;5037495;28;20460;-73
2023/08/11 03:15:15;;;;;;;7.57;3.95;;;;;;;14.52;100.00;100877.75;5033877;28;20041;-73
2023/08/11 03:17:44;;;;;;;6.47;4.28;;;;;;;14.55;100.00;100882.91;5039655;28;20065;-73
2023/08/11 03:20:12;;;;;;;6.40;4.30;;;;;;;14.57;100.00;100883.69;5046017;28;20574;-73
2023/08/11 03:22:46;;;;;;;7.57;3.80;;;;;;;14.58;100.00;100880.09;5047574;28;20041;-73
2023/08/11 03:25:19;;;;;;;7.40;4.30;;;;;;;14.58;100.00;100885.41;5058627;28;20049;-72
2023/08/11 03:27:48;;;;;;;6.13;3.75;;;;;;;14.54;100.00;100878.53;5052719;28;20102;-73
2023/08/11 03:30:22;;;;;;;8.80;4.20;;;;;;;14.57;100.00;100879.22;5037492;28;20131;-72
2023/08/11 03:32:53;;;;;;;5.13;3.72;;;;;;;14.56;100.00;100882.81;5045066;28;20501;-72
2023/08/11 03:35:27;;;;;;;6.45;3.80;;;;;;;14.58;100.00;100880.09;5045096;28;20041;-73
2023/08/11 03:37:57;;;;;;;6.22;3.85;;;;;;;14.57;100.00;100881.03;5045350;28;20195;-73
2023/08/11 03:40:25;;;;;;;6.85;4.20;;;;;;;14.45;100.00;100866.59;5050036;28;20049;-73
2023/08/11 03:42:55;;;;;;;7.05;4.40;;;;;;;14.46;100.00;100886.09;5038134;28;20391;-72
2023/08/11 03:45:24;;;;;;;7.25;4.10;;;;;;;14.39;100.00;100886.38;5037928;28;20047;-73
2023/08/11 03:47:52;;;;;;;9.27;4.47;;;;;;;14.39;100.00;100885.53;5043539;28;20045;-73
2023/08/11 03:50:22;;;;;;;5.97;4.22;;;;;;;14.39;100.00;100880.19;5032451;28;20107;-72
2023/08/11 03:52:50;;;;;;;6.72;4.20;;;;;;;14.34;100.00;100887.56;5038202;28;21463;-73
2023/08/11 03:55:20;;;;;;;10.27;4.47;;;;;;;14.34;100.00;100898.22;5018509;28;20050;-73
2023/08/11 03:57:48;;;;;;;7.03;4.25;;;;;;;14.28;100.00;100886.13;5037450;28;20049;-73
2023/08/11 04:00:20;;;;;;;7.40;4.60;;;;;;;14.31;100.00;100898.44;5046627;28;20194;-73
2023/08/11 04:03:03;;;;;;;7.47;4.78;;;;;;;14.30;100.00;100905.56;5034233;28;21562;-72
2023/08/11 04:05:31;;;;;;;4.80;3.90;;;;;;;14.23;100.00;100898.81;5036067;28;20076;-74
2023/08/11 04:07:59;;;;;;;8.27;4.50;;;;;;;14.22;100.00;100905.09;5038384;28;20498;-72
2023/08/11 04:10:29;;;;;;;8.57;4.80;;;;;;;14.14;100.00;100891.34;5043782;28;20040;-74
2023/08/11 04:12:59;;;;;;;9.63;5.05;;;;;;;14.10;100.00;100889.78;5038880;28;22071;-74
2023/08/11 04:15:28;;;;;;;4.90;4.40;;;;;;;14.16;100.00;100904.59;5040058;28;20042;-73
2023/08/11 04:17:57;;;;;;;7.63;4.45;;;;;;;14.18;100.00;100894.69;5037874;28;20057;-72
2023/08/11 04:20:28;;;;;;;5.05;4.13;;;;;;;14.23;100.00;100898.81;5039234;28;20045;-72
2023/08/11 04:22:56;;;;;;;6.43;4.65;;;;;;;14.25;100.00;100894.28;5028275;28;20053;-72
2023/08/11 04:25:25;;;;;;;5.47;4.43;;;;;;;14.24;100.00;100899.69;5026757;28;20065;-72
2023/08/11 04:27:55;;;;;;;6.50;4.40;;;;;;;14.22;100.00;100894.44;5044645;28;20049;-73
2023/08/11 04:30:24;;;;;;;7.75;4.47;;;;;;;14.22;100.00;100889.09;5033545;28;20486;-74
2023/08/11 04:32:53;;;;;;;8.13;5.43;;;;;;;14.25;100.00;100894.28;5039234;28;20047;-74
2023/08/11 04:35:21;;;;;;;9.75;4.35;;;;;;;14.25;100.00;100904.94;5041499;28;20034;-74
2023/08/11 04:37:58;;;;;;;7.47;4.55;;;;;;;14.22;100.00;100899.75;5045285;28;20139;-73
2023/08/11 04:40:29;;;;;;;8.55;4.85;;;;;;;14.27;100.00;100903.06;5026728;28;20417;-73
2023/08/11 04:42:59;;;;;;;5.95;4.25;;;;;;;14.26;100.00;100892.47;5037117;28;20052;-73
2023/08/11 04:45:34;;;;;;;5.32;4.28;;;;;;;14.29;100.00;100887.84;5034279;28;20099;-73
2023/08/11 04:48:03;;;;;;;10.45;5.20;;;;;;;14.39;100.00;100904.19;5047174;28;20798;-73
2023/08/11 04:50:35;;;;;;;7.63;4.20;;;;;;;14.43;100.00;100899.59;5040576;28;20045;-74
2023/08/11 04:53:03;;;;;;;7.32;4.10;;;;;;;14.47;100.00;100901.16;5037936;28;20063;-73
2023/08/11 04:55:31;;;;;;;8.82;4.68;;;;;;;14.47;100.00;100891.34;5042786;28;20135;-74
2023/08/11 04:58:04;;;;;;;7.28;4.13;;;;;;;14.46;100.00;100889.63;5040096;28;20832;-73
2023/08/11 05:00:34;;;;;;;9.90;4.70;;;;;;;14.55;100.00;100901.56;5030952;28;20091;-73
2023/08/11 05:03:03;;;;;;;;;;;;;;;14.58;100.00;100904.06;5045530;28;20051;-73
2023/08/11 05:05:31;;;;;;;9.73;4.38;;;;;;;14.69;100.00;100910.50;5038122;28;19924;-73
2023/08/11 05:08:00;;;;;;;10.57;4.40;;;;;;;14.73;100.00;100906.75;5039726;28;20060;-74
2023/08/11 05:10:28;;;;;;;7.30;4.00;;;;;;;14.72;100.00;100907.69;5037101;28;20056;-73
2023/08/11 05:12:56;;;;;;;3.67;3.10;;;;;;;14.81;100.00;100910.75;5027622;28;20045;-73
2023/08/11 05:15:26;;;;;;;6.65;4.32;;;;;;;14.88;100.00;100907.69;5023026;28;20099;-72
2023/08/11 05:17:54;;;;;;;8.27;3.97;;;;;;;14.85;100.00;100899.84;5049880;28;20045;-72
2023/08/11 05:20:23;;;;;;;6.57;4.00;;;;;;;14.95;100.00;100918.88;5067698;28;20112;-75
2023/08/11 05:22:52;;;;;;;9.52;3.65;;;;;;;14.94;100.00;100915.34;5043684;28;20037;-73
2023/08/11 05:25:20;;;;;;;7.78;4.07;;;;;;;15.02;100.00;100918.41;5065606;28;20060;-72
2023/08/11 05:27:48;;;;;;;8.13;3.50;;;;;;;15.11;100.00;100911.69;5050859;28;20307;-73
2023/08/11 05:30:17;;;;;;;8.70;4.28;;;;;;;15.14;100.00;100916.00;5030188;28;20103;-72
2023/08/11 05:32:46;;;;;;;9.20;4.00;;;;;;;15.25;100.00;100924.25;5052651;28;20049;-72
2023/08/11 05:35:14;;;;;;;6.82;3.65;;;;;;;15.28;100.00;100932.06;5042836;28;20049;-72
2023/08/11 05:37:43;;;;;;;7.80;4.05;;;;;;;15.34;100.00;100934.38;5054005;28;20051;-72
2023/08/11 05:40:12;;;;;;;7.68;3.65;;;;;;;15.37;100.00;100932.41;5043928;28;20056;-72
2023/08/11 05:42:40;;;;;;;4.47;3.58;;;;;;;15.44;100.00;100935.56;5045492;28;20049;-73
2023/08/11 05:45:09;;;;;;;5.63;3.30;;;;;;;15.50;100.00;100935.22;5040176;28;20041;-72
2023/08/11 05:47:37;;;;;;;6.43;3.67;;;;;;;15.55;100.00;100926.94;5036146;28;20045;-73
2023/08/11 05:50:09;;;;;;;6.88;3.95;;;;;;;15.64;100.00;100932.59;5043797;28;20048;-73
2023/08/11 05:52:37;;;;;;;5.38;3.35;;;;;;;15.72;100.00;100934.84;5041893;28;20041;-71
2023/08/11 05:55:06;;;;;;;8.80;3.88;;;;;;;15.76;100.00;100920.34;5037669;28;20053;-73
2023/08/11 05:57:35;;;;;;;4.57;3.22;;;;;;;15.88;100.00;100930.31;5030425;28;20571;-73
2023/08/11 06:00:04;;;;;;;6.53;3.22;;;;;;;16.00;100.00;100931.34;5037187;28;20045;-73
2023/08/11 06:02:39;;;;;;;7.78;3.90;;;;;;;16.11;100.00;100934.22;5043544;28;20516;-73
2023/08/11 06:05:10;;;;;;;10.07;4.20;;;;;;;16.21;100.00;100935.41;5021290;28;20056;-71
2023/08/11 06:07:37;;;;;;;6.38;3.17;;;;;;;16.30;100.00;100931.28;5035513;28;20537;-72
2023/08/11 06:10:10;;;;;;;9.27;3.88;;;;;;;16.36;100.00;100929.09;5040454;28;20040;-72
2023/08/11 06:12:38;;;;;;;7.82;3.65;;;;;;;16.44;100.00;100929.47;5054377;28;20405;-71
2023/08/11 06:15:06;;;;;;;5.03;3.20;;;;;;;16.47;100.00;100928.41;5047369;28;20114;-71
2023/08/11 06:17:35;;;;;;;8.05;3.75;;;;;;;16.57;100.00;100932.22;5041152;28;20485;-72
2023/08/11 06:20:04;;;;;;;9.90;3.63;;;;;;;16.65;100.00;100931.78;5038214;28;20114;-72
2023/08/11 06:22:33;;;;;;;12.27;3.85;;;;;;;16.76;100.00;100931.94;5038459;28;20129;-73
2023/08/11 06:25:02;;;;;;;10.20;3.53;;;;;;;16.83;100.00;100931.47;5038220;28;20044;-73
2023/08/11 06:27:31;;;;;;;6.73;3.40;;;;;;;17.03;100.00;100932.81;5041480;28;20041;-72
2023/08/11 06:29:59;;;;;;;7.32;3.50;;;;;;;17.35;100.00;100921.81;5042764;28;20053;-72
2023/08/11 06:32:27;;;;;;;8.82;4.00;;;;;;;17.60;100.00;100916.53;5050274;28;20045;-73
2023/08/11 06:34:55;;;;;;;6.40;3.42;;;;;;;17.79;100.00;100886.69;5043156;28;20050;-74
2023/08/11 06:37:23;;;;;;;5.93;3.47;;;;;;;18.44;100.00;100899.94;5052176;28;20037;-73
2023/08/11 06:39:54;;;;;;;6.53;3.30;;;;;;;18.89;100.00;100914.56;5036484;28;20109;-70
2023/08/11 06:42:22;;;;;;;6.35;3.70;;;;;;;19.21;100.00;100920.25;5039870;28;20124;-73
2023/08/11 06:45:02;;;;;;;6.63;3.53;;;;;;;19.42;100.00;100915.97;5030118;28;20059;-72
2023/08/11 06:47:31;;;;;;;4.82;3.42;;;;;;;19.67;100.00;100917.69;5035654;28;20072;-68
2023/08/11 06:49:59;;;;;;;6.13;3.17;;;;;;;19.90;100.00;100924.81;5038696;28;20049;-71
2023/08/11 06:52:26;;;;;;;6.75;3.15;;;;;;;20.14;100.00;100923.91;5023304;28;20069;-71
2023/08/11 06:54:56;;;;;;;6.40;3.22;;;;;;;20.29;100.00;100917.31;5036365;28;20120;-71
2023/08/11 06:57:26;;;;;;;5.13;3.42;;;;;;;20.38;100.00;100923.81;5034643;28;20041;-71
2023/08/11 06:59:56;;;;;;;8.32;3.38;;;;;;;20.33;100.00;100918.75;5039090;28;20053;-70
2023/08/11 07:02:24;;;;;;;8.13;3.35;;;;;;;20.28;100.00;100908.38;5037097;28;20822;-71
2023/08/11 07:04:52;;;;;;;7.25;3.40;;;;;;;20.48;100.00;100928.31;5017854;28;20065;-69
2023/08/11 07:07:21;;;;;;;9.75;3.42;;;;;;;20.59;100.00;100932.88;5026185;28;20054;-71
2023/08/11 07:09:49;;;;;;;10.05;3.22;;;;;;;20.48;98.96;100939.09;5040586;28;20056;-73
2023/08/11 07:12:18;;;;;;;8.50;3.47;;;;;;;20.23;100.00;100942.84;5037003;28;20053;-72
2023/08/11 07:14:47;;;;;;;5.78;4.03;;;;;;;20.17;100.00;100953.19;5038012;28;20034;-74
2023/08/11 07:17:15;;;;;;;9.27;4.25;;;;;;;20.12;100.00;100952.72;5034115;28;20406;-75
2023/08/11 07:19:43;;;;;;;8.45;3.70;;;;;;;20.17;100.00;100953.19;5037689;28;20067;-74
2023/08/11 07:22:11;;;;;;;8.07;3.75;;;;;;;20.10;100.00;100931.34;5042846;28;20049;-74
2023/08/11 07:24:38;;;;;;;6.10;3.22;;;;;;;20.31;100.00;100932.31;5030677;28;20064;-72
2023/08/11 07:27:06;;;;;;;6.85;3.35;;;;;;;20.42;100.00;100941.44;5032474;28;20049;-75
2023/08/11 07:29:36;;;;;;;6.45;3.28;;;;;;;20.56;100.00;100949.25;5034131;28;20049;-74
2023/08/11 07:32:05;;;;;;;9.52;3.40;;;;;;;20.97;100.00;100949.44;5034892;28;20045;-73
2023/08/11 07:34:33;;;;;;;9.40;4.00;;;;;;;21.28;100.00;100946.94;5033662;28;20049;-73
2023/08/11 07:37:01;;;;;;;6.90;3.47;;;;;;;21.45;99.70;100937.47;5052564;28;20053;-75
2023/08/11 07:39:30;;;;;;;9.93;3.45;;;;;;;21.74;100.00;100943.94;5027241;28;20074;-74
2023/08/11 07:42:02;;;;;;;8.23;3.67;;;;;;;21.94;93.22;100950.34;5011076;28;20057;-70
2023/08/11 07:44:30;;;;;;;9.27;3.10;;;;;;;22.30;88.74;100947.19;5039618;28;20116;-72
2023/08/11 07:47:02;;;;;;;6.13;3.50;;;;;;;22.63;83.39;100943.38;5032852;28;20895;-75
2023/08/11 07:49:31;;;;;;;5.07;3.03;;;;;;;23.01;77.45;100941.81;5021627;28;20041;-71
2023/08/11 07:51:59;;;;;;;4.47;3.08;;;;;;;23.29;74.33;100948.28;5040775;28;20041;-70
2023/08/11 07:54:27;;;;;;;4.35;3.00;;;;;;;23.44;74.55;100947.72;5036651;28;20631;-72
2023/08/11 07:56:55;;;;;;;8.93;3.65;;;;;;;23.71;72.92;100947.03;5037886;28;20128;-72
2023/08/11 07:59:24;;;;;;;5.95;3.60;;;;;;;23.99;69.94;100947.13;5044406;28;20037;-70
2023/08/11 08:01:52;;;;;;;11.60;3.42;;;;;;;24.21;65.90;100938.69;5052667;28;20041;-71
2023/08/11 08:04:22;;;;;;;5.13;3.00;;;;;;;24.36;64.80;100920.16;5049204;28;20049;-71
2023/08/11 08:06:50;;;;;;;7.63;3.28;;;;;;;24.57;65.67;100942.44;5036636;28;20034;-73
2023/08/11 08:09:18;;;;;;;4.22;3.33;;;;;;;24.83;62.74;100942.63;5030357;28;20048;-73
2023/08/11 08:11:47;;;;;;;6.00;3.47;;;;;;;25.17;59.70;100948.28;5037650;28;20042;-72
2023/08/11 08:14:15;;;;;;;5.38;3.05;;;;;;;25.32;57.54;100933.22;5037093;28;20037;-71
2023/08/11 08:16:44;;;;;;;6.40;3.42;;;;;;;25.28;54.10;100941.78;5022280;28;20087;-71
2023/08/11 08:19:14;;;;;;;4.93;3.67;;;;;;;25.28;55.31;100928.25;5042598;28;20048;-71
2023/08/11 08:21:43;;;;;;;4.75;3.72;;;;;;;25.53;54.53;100944.59;5050196;28;20468;-72
2023/08/11 08:24:12;;;;;;;7.07;3.67;;;;;;;25.37;52.44;100947.13;5056330;28;20061;-72
2023/08/11 08:26:40;;;;;;;5.68;3.67;;;;;;;25.22;54.52;100932.41;5053707;28;20043;-73
2023/08/11 08:29:09;;;;;;;7.75;3.72;;;;;;;25.19;55.97;100946.25;5057121;28;20053;-71
2023/08/11 08:31:37;;;;;;;4.88;3.22;;;;;;;25.12;55.38;100935.19;5056969;28;20098;-72
2023/08/11 08:34:05;;;;;;;9.10;3.75;;;;;;;24.80;54.55;100945.63;5057535;28;20474;-72
2023/08/11 08:36:33;;;;;;;6.57;3.83;;;;;;;24.69;54.30;100933.13;5030385;28;20053;-72
2023/08/11 08:39:03;;;;;;;6.80;4.10;;;;;;;24.92;54.00;100938.13;5038219;28;20079;-72
2023/08/11 08:41:39;;;;;;;6.82;3.80;;;;;;;25.03;55.92;100933.38;5041875;28;20053;-72
2023/08/11 08:44:07;;;;;;;6.63;4.00;;;;;;;24.97;54.75;100935.88;5035200;28;20077;-74
2023/08/11 08:46:37;;;;;;;7.88;3.53;;;;;;;24.70;55.83;100942.97;5021156;28;20069;-74
2023/08/11 08:49:15;;;;;;;5.55;3.42;;;;;;;24.69;56.79;100943.97;5046185;28;20085;-70
2023/08/11 08:51:45;;;;;;;6.05;4.15;;;;;;;24.91;55.89;100933.72;5041596;28;20060;-73
2023/08/11 08:54:14;;;;;;;5.40;3.60;;;;;;;24.89;53.14;100941.13;5036689;28;20049;-72
2023/08/11 08:56:42;;;;;;;7.28;3.15;;;;;;;25.05;53.92;100935.94;5040057;28;20057;-72
2023/08/11 08:59:10;;;;;;;5.75;3.38;;;;;;;25.64;50.29;100939.97;5041418;28;20646;-72
2023/08/11 09:01:39;;;;;;;4.57;2.80;;;;;;;26.14;49.20;100932.88;5040825;28;20046;-72
2023/08/11 09:04:08;;;;;;;5.60;3.35;;;;;;;26.45;46.33;100925.13;5025641;28;20579;-73
2023/08/11 09:06:39;;;;;;;5.35;2.90;;;;;;;26.82;45.76;100941.09;5038230;28;20041;-73
2023/08/11 09:09:09;;;;;;;4.03;2.85;;;;;;;26.93;45.64;100929.06;5036191;28;20218;-71
2023/08/11 09:11:39;;;;;;;7.00;3.20;;;;;;;27.13;44.27;100924.25;5045364;28;20563;-72
2023/08/11 09:14:09;;;;;;;4.65;2.97;;;;;;;27.28;44.12;100924.44;5042527;28;20065;-73
2023/08/11 09:16:37;;;;;;;6.03;3.00;;;;;;;27.40;43.66;100925.81;5032479;28;20045;-72
2023/08/11 09:19:08;;;;;;;4.07;2.83;;;;;;;26.85;43.50;100916.31;5045897;28;20068;-72
2023/08/11 09:21:36;;;;;;;;;;;;;;;26.78;43.12;100925.28;5034690;28;20083;-74
2023/08/11 09:24:12;;;;;;;4.18;2.55;;;;;;;26.08;43.29;100928.13;5041779;28;19921;-72
2023/08/11 09:26:45;;;;;;;5.50;2.85;;;;;;;25.43;46.20;100924.84;5022754;28;20056;-71
2023/08/11 09:29:14;;;;;;;4.40;3.15;;;;;;;24.87;48.07;100907.97;5041266;28;20041;-72
2023/08/11 09:31:42;;;;;;;9.07;4.13;;;;;;;24.66;49.13;100917.19;5039311;28;20095;-73
2023/08/11 09:34:13;;;;;;;4.85;2.90;;;;;;;24.76;49.38;100917.97;5044257;28;20049;-73
2023/08/11 09:36:42;;;;;;;4.35;2.50;;;;;;;24.78;49.09;100917.81;5036302;28;20144;-73
2023/08/11 09:39:10;;;;;;;4.95;2.90;;;;;;;24.83;48.74;100900.13;5013290;28;20436;-73
2023/08/11 09:41:44;;;;;;;7.03;2.63;;;;;;;24.91;48.61;100912.91;5042447;28;20053;-72
2023/08/11 09:44:15;;;;;;;3.78;2.78;;;;;;;24.92;49.74;100911.91;5040058;28;20045;-73
2023/08/11 09:46:44;;;;;;;3.28;2.60;;;;;;;24.88;50.64;100906.91;5034122;28;20132;-75
2023/08/11 09:49:13;;;;;;;8.43;2.90;;;;;;;24.91;49.63;100912.03;5040393;28;20045;-70
2023/08/11 09:51:42;;;;;;;3.97;2.53;;;;;;;24.94;51.63;100914.50;5039354;28;20072;-71
2023/08/11 09:54:12;;;;;;;7.05;3.00;;;;;;;25.01;50.27;100902.06;5036085;28;20077;-72
2023/08/11 09:56:43;;;;;;;3.72;2.67;;;;;;;25.24;50.37;100921.41;5041802;28;20052;-71
2023/08/11 09:59:12;;;;;;;5.10;2.40;;;;;;;25.37;50.60;100928.16;5044935;28;20046;-73
2023/08/11 10:01:43;;;;;;;6.50;2.90;;;;;;;25.50;50.73;100925.03;5034540;28;20056;-73
2023/08/11 10:04:19;;;;;;;5.05;2.65;;;;;;;25.56;50.28;100916.31;5018412;28;20061;-73
2023/08/11 10:06:50;;;;;;;4.15;2.50;;;;;;;25.62;50.30;100901.31;5030477;28;20489;-72
2023/08/11 10:09:25;;;;;;;6.30;2.75;;;;;;;25.83;49.09;100918.06;5040259;28;20045;-72
2023/08/11 10:11:57;;;;;;;5.85;2.67;;;;;;;25.94;49.05;100914.28;5032016;28;20041;-72
2023/08/11 10:14:27;;;;;;;4.28;2.40;;;;;;;25.93;49.07;100909.84;5054118;28;20055;-71
2023/08/11 10:16:55;;;;;;;4.27;2.37;;;;;;;25.96;48.94;100901.41;5027512;28;20056;-73
2023/08/11 10:19:23;;;;;;;5.90;2.70;;;;;;;25.97;48.55;100898.53;5034706;28;20517;-72
2023/08/11 10:21:52;;;;;;;3.47;2.75;;;;;;;26.12;49.54;100904.22;5032549;28;20056;-72
2023/08/11 10:24:21;;;;;;;7.72;2.83;;;;;;;26.14;48.09;100911.19;5039478;28;20045;-71
2023/08/11 10:26:50;;;;;;;6.25;2.90;;;;;;;26.14;48.27;100905.75;5033409;28;20509;-72
2023/08/11 10:29:21;;;;;;;5.57;2.40;;;;;;;26.18;46.34;100904.41;5040409;28;20044;-72
2023/08/11 10:31:57;;;;;;;3.85;2.60;;;;;;;26.36;47.24;100898.09;5032933;28;20041;-74
2023/08/11 10:34:27;;;;;;;4.55;2.45;;;;;;;26.45;47.40;100899.84;5035889;28;20057;-73
2023/08/11 10:36:57;;;;;;;7.82;2.75;;;;;;;26.33;45.53;100882.13;5029781;28;20049;-73
2023/08/11 10:39:25;;;;;;;3.92;2.58;;;;;;;26.45;47.23;100897.97;5042092;28;20045;-72
2023/08/11 10:41:58;;;;;;;4.45;2.22;;;;;;;26.66;46.45;100894.84;5031370;28;20100;-73
2023/08/11 10:44:30;;;;;;;4.03;2.83;;;;;;;26.78;46.43;100898.09;5034179;28;20042;-71
2023/08/11 10:47:03;;;;;;;3.53;2.75;;;;;;;26.92;45.71;100895.59;5033188;28;20068;-71
2023/08/11 10:49:34;;;;;;;4.43;2.90;;;;;;;27.07;45.50;100889.59;5008508;28;20044;-72
2023/08/11 10:52:01;;;;;;;;;;;;;;;27.21;44.11;100897.09;5041279;28;20394;-72
2023/08/11 10:54:29;;;;;;;3.17;2.20;;;;;;;27.16;43.72;100891.28;5032000;28;19939;-71
2023/08/11 10:57:00;;;;;;;6.50;3.03;;;;;;;27.04;44.81;100893.47;5041824;28;20053;-71
2023/08/11 10:59:30;;;;;;;3.00;2.40;;;;;;;26.83;44.31;100876.75;5034247;28;20189;-72
2023/08/11 11:01:59;;;;;;;3.70;2.28;;;;;;;26.76;44.99;100857.50;5036476;28;20049;-72
2023/08/11 11:04:29;;;;;;;3.00;2.30;;;;;;;27.12;44.57;100885.31;5035391;28;20057;-71
2023/08/11 11:06:59;;;;;;;3.85;2.47;;;;;;;27.25;44.32;100891.13;5014319;28;20053;-72
2023/08/11 11:09:28;;;;;;;4.30;2.40;;;;;;;27.15;44.11;100868.69;5032682;28;20130;-72
2023/08/11 11:11:58;;;;;;;4.82;3.30;;;;;;;27.24;44.45;100883.97;5040208;28;20056;-77
2023/08/11 11:14:27;;;;;;;11.48;4.90;;;;;;;27.41;44.38;100879.41;5044841;28;20033;-74
2023/08/11 11:17:03;;;;;;;10.68;3.60;;;;;;;27.47;42.86;100867.00;5046069;28;20201;-76
2023/08/11 11:19:37;;;;;;;4.60;2.33;;;;;;;27.50;42.68;100855.78;5044545;28;20501;-73
2023/08/11 11:22:06;;;;;;;4.45;3.00;;;;;;;27.62;43.33;100867.22;5040912;28;20042;-72
2023/08/11 11:24:35;;;;;;;2.97;2.53;;;;;;;27.75;42.15;100870.25;5033978;28;20794;-73
2023/08/11 11:27:04;;;;;;;6.45;3.45;;;;;;;27.79;42.13;100856.16;5033300;28;20055;-75
2023/08/11 11:29:37;;;;;;;2.25;1.95;;;;;;;27.87;42.14;100864.28;5023790;28;20047;-71